sensor_id;sensor_type;location;lat;lon;timestamp;temperature;humidity
11045;DHT22;9786;42.714;23.272;2024-03-02T00:02:14;8.10;86.70
11045;DHT22;9786;42.714;23.272;2024-03-02T00:04:45;8.10;86.80
11045;DHT22;9786;42.714;23.272;2024-03-02T00:07:14;8.10;86.70
11045;DHT22;9786;42.714;23.272;2024-03-02T00:09:45;8.10;86.00
11045;DHT22;9786;42.714;23.272;2024-03-02T00:12:15;8.10;85.80
11045;DHT22;9786;42.714;23.272;2024-03-02T00:14:44;8.20;86.10
11045;DHT22;9786;42.714;23.272;2024-03-02T00:17:21;8.10;85.80
11045;DHT22;9786;42.714;23.272;2024-03-02T00:19:53;8.10;85.70
11045;DHT22;9786;42.714;23.272;2024-03-02T00:22:22;8.10;85.70
11045;DHT22;9786;42.714;23.272;2024-03-02T00:24:52;8.10;85.10
11045;DHT22;9786;42.714;23.272;2024-03-02T00:27:21;8.10;84.60
11045;DHT22;9786;42.714;23.272;2024-03-02T00:29:53;8.20;84.10
11045;DHT22;9786;42.714;23.272;2024-03-02T00:32:23;8.30;83.50
11045;DHT22;9786;42.714;23.272;2024-03-02T00:34:56;8.30;83.40
11045;DHT22;9786;42.714;23.272;2024-03-02T00:37:25;8.40;82.70
11045;DHT22;9786;42.714;23.272;2024-03-02T00:39:56;8.40;82.60
11045;DHT22;9786;42.714;23.272;2024-03-02T00:42:25;8.40;82.50
11045;DHT22;9786;42.714;23.272;2024-03-02T00:44:54;8.40;82.30
11045;DHT22;9786;42.714;23.272;2024-03-02T00:47:23;8.40;82.30
11045;DHT22;9786;42.714;23.272;2024-03-02T00:49:52;8.40;82.80
11045;DHT22;9786;42.714;23.272;2024-03-02T00:52:25;8.40;82.50
11045;DHT22;9786;42.714;23.272;2024-03-02T00:54:57;8.40;82.60
11045;DHT22;9786;42.714;23.272;2024-03-02T00:57:34;8.40;82.60
11045;DHT22;9786;42.714;23.272;2024-03-02T01:00:03;8.50;83.00
11045;DHT22;9786;42.714;23.272;2024-03-02T01:02:37;8.40;82.50
11045;DHT22;9786;42.714;23.272;2024-03-02T01:05:07;8.60;82.80
11045;DHT22;9786;42.714;23.272;2024-03-02T01:07:42;8.50;82.90
11045;DHT22;9786;42.714;23.272;2024-03-02T01:10:15;8.50;82.90
11045;DHT22;9786;42.714;23.272;2024-03-02T01:12:44;8.60;83.20
11045;DHT22;9786;42.714;23.272;2024-03-02T01:15:14;8.60;83.10
11045;DHT22;9786;42.714;23.272;2024-03-02T01:17:43;8.60;83.40
11045;DHT22;9786;42.714;23.272;2024-03-02T01:20:12;8.50;84.10
11045;DHT22;9786;42.714;23.272;2024-03-02T01:22:41;8.50;84.80
11045;DHT22;9786;42.714;23.272;2024-03-02T01:25:11;8.50;85.20
11045;DHT22;9786;42.714;23.272;2024-03-02T01:27:42;8.50;85.10
11045;DHT22;9786;42.714;23.272;2024-03-02T01:30:15;8.40;85.40
11045;DHT22;9786;42.714;23.272;2024-03-02T01:32:47;8.40;85.70
11045;DHT22;9786;42.714;23.272;2024-03-02T01:35:16;8.40;85.80
11045;DHT22;9786;42.714;23.272;2024-03-02T01:37:48;8.30;86.20
11045;DHT22;9786;42.714;23.272;2024-03-02T01:40:17;8.40;86.10
11045;DHT22;9786;42.714;23.272;2024-03-02T01:42:54;8.30;85.80
11045;DHT22;9786;42.714;23.272;2024-03-02T01:45:26;8.30;85.50
11045;DHT22;9786;42.714;23.272;2024-03-02T01:47:56;8.50;85.40
11045;DHT22;9786;42.714;23.272;2024-03-02T01:50:27;8.50;85.50
11045;DHT22;9786;42.714;23.272;2024-03-02T01:52:56;8.60;85.40
11045;DHT22;9786;42.714;23.272;2024-03-02T01:55:26;8.60;85.30
11045;DHT22;9786;42.714;23.272;2024-03-02T01:58:04;8.50;86.00
11045;DHT22;9786;42.714;23.272;2024-03-02T02:00:33;8.50;86.70
11045;DHT22;9786;42.714;23.272;2024-03-02T02:03:02;8.20;88.00
11045;DHT22;9786;42.714;23.272;2024-03-02T02:05:32;8.10;88.30
11045;DHT22;9786;42.714;23.272;2024-03-02T02:08:03;8.10;88.80
11045;DHT22;9786;42.714;23.272;2024-03-02T02:10:32;8.00;88.90
11045;DHT22;9786;42.714;23.272;2024-03-02T02:13:02;8.00;88.60
11045;DHT22;9786;42.714;23.272;2024-03-02T02:15:32;8.10;88.90
11045;DHT22;9786;42.714;23.272;2024-03-02T02:18:03;8.00;89.20
11045;DHT22;9786;42.714;23.272;2024-03-02T02:20:32;8.00;89.30
11045;DHT22;9786;42.714;23.272;2024-03-02T02:23:04;8.00;89.10
11045;DHT22;9786;42.714;23.272;2024-03-02T02:25:35;8.10;88.90
11045;DHT22;9786;42.714;23.272;2024-03-02T02:28:07;8.30;88.50
11045;DHT22;9786;42.714;23.272;2024-03-02T02:30:36;8.40;87.70
11045;DHT22;9786;42.714;23.272;2024-03-02T02:33:05;8.50;87.30
11045;DHT22;9786;42.714;23.272;2024-03-02T02:35:34;8.50;87.00
11045;DHT22;9786;42.714;23.272;2024-03-02T02:38:09;8.50;86.80
11045;DHT22;9786;42.714;23.272;2024-03-02T02:40:38;8.50;86.80
11045;DHT22;9786;42.714;23.272;2024-03-02T02:43:07;8.50;86.80
11045;DHT22;9786;42.714;23.272;2024-03-02T02:45:36;8.60;87.10
11045;DHT22;9786;42.714;23.272;2024-03-02T02:48:05;8.60;87.10
11045;DHT22;9786;42.714;23.272;2024-03-02T02:50:34;8.60;87.30
11045;DHT22;9786;42.714;23.272;2024-03-02T02:53:03;8.60;87.40
11045;DHT22;9786;42.714;23.272;2024-03-02T02:55:34;8.50;87.30
11045;DHT22;9786;42.714;23.272;2024-03-02T02:58:08;8.40;87.90
11045;DHT22;9786;42.714;23.272;2024-03-02T03:00:42;8.40;88.30
11045;DHT22;9786;42.714;23.272;2024-03-02T03:03:14;8.50;88.10
11045;DHT22;9786;42.714;23.272;2024-03-02T03:05:59;8.50;87.60
11045;DHT22;9786;42.714;23.272;2024-03-02T03:08:32;8.60;87.60
11045;DHT22;9786;42.714;23.272;2024-03-02T03:11:03;8.70;87.40
11045;DHT22;9786;42.714;23.272;2024-03-02T03:13:33;8.70;87.60
11045;DHT22;9786;42.714;23.272;2024-03-02T03:16:02;8.70;87.40
11045;DHT22;9786;42.714;23.272;2024-03-02T03:18:32;8.70;87.30
11045;DHT22;9786;42.714;23.272;2024-03-02T03:21:01;8.50;87.10
11045;DHT22;9786;42.714;23.272;2024-03-02T03:23:30;8.40;87.80
11045;DHT22;9786;42.714;23.272;2024-03-02T03:25:59;8.40;87.90
11045;DHT22;9786;42.714;23.272;2024-03-02T03:28:29;8.30;88.20
11045;DHT22;9786;42.714;23.272;2024-03-02T03:30:58;8.50;88.80
11045;DHT22;9786;42.714;23.272;2024-03-02T03:33:27;8.60;87.60
11045;DHT22;9786;42.714;23.272;2024-03-02T03:35:56;8.70;87.30
11045;DHT22;9786;42.714;23.272;2024-03-02T03:38:25;8.70;86.90
11045;DHT22;9786;42.714;23.272;2024-03-02T03:40:53;8.70;87.20
11045;DHT22;9786;42.714;23.272;2024-03-02T03:43:22;8.70;87.40
11045;DHT22;9786;42.714;23.272;2024-03-02T03:45:52;8.80;88.00
11045;DHT22;9786;42.714;23.272;2024-03-02T03:48:21;8.60;88.00
11045;DHT22;9786;42.714;23.272;2024-03-02T03:50:50;8.60;87.70
11045;DHT22;9786;42.714;23.272;2024-03-02T03:53:18;8.50;87.80
11045;DHT22;9786;42.714;23.272;2024-03-02T03:55:50;8.40;88.00
11045;DHT22;9786;42.714;23.272;2024-03-02T03:58:18;8.30;88.10
11045;DHT22;9786;42.714;23.272;2024-03-02T04:00:49;8.30;89.00
11045;DHT22;9786;42.714;23.272;2024-03-02T04:03:19;8.20;88.90
11045;DHT22;9786;42.714;23.272;2024-03-02T04:05:48;8.00;89.70
11045;DHT22;9786;42.714;23.272;2024-03-02T04:08:17;8.10;89.50
11045;DHT22;9786;42.714;23.272;2024-03-02T04:10:45;8.20;89.50
11045;DHT22;9786;42.714;23.272;2024-03-02T04:13:14;8.20;89.20
11045;DHT22;9786;42.714;23.272;2024-03-02T04:15:43;8.20;89.30
11045;DHT22;9786;42.714;23.272;2024-03-02T04:18:12;8.30;89.10
11045;DHT22;9786;42.714;23.272;2024-03-02T04:20:42;8.30;89.30
11045;DHT22;9786;42.714;23.272;2024-03-02T04:23:10;8.30;89.10
11045;DHT22;9786;42.714;23.272;2024-03-02T04:25:39;8.40;89.10
11045;DHT22;9786;42.714;23.272;2024-03-02T04:28:08;8.40;89.00
11045;DHT22;9786;42.714;23.272;2024-03-02T04:30:36;8.40;88.90
11045;DHT22;9786;42.714;23.272;2024-03-02T04:33:05;8.40;89.10
11045;DHT22;9786;42.714;23.272;2024-03-02T04:35:37;8.40;89.10
11045;DHT22;9786;42.714;23.272;2024-03-02T04:38:07;8.30;89.60
11045;DHT22;9786;42.714;23.272;2024-03-02T04:40:35;8.20;90.30
11045;DHT22;9786;42.714;23.272;2024-03-02T04:43:04;8.20;90.50
11045;DHT22;9786;42.714;23.272;2024-03-02T04:45:33;8.00;91.10
11045;DHT22;9786;42.714;23.272;2024-03-02T04:48:02;7.90;91.10
11045;DHT22;9786;42.714;23.272;2024-03-02T04:50:31;8.00;91.00
11045;DHT22;9786;42.714;23.272;2024-03-02T04:53:00;8.10;90.90
11045;DHT22;9786;42.714;23.272;2024-03-02T04:55:30;8.00;91.00
11045;DHT22;9786;42.714;23.272;2024-03-02T04:58:25;8.00;91.20
11045;DHT22;9786;42.714;23.272;2024-03-02T05:00:54;7.90;91.60
11045;DHT22;9786;42.714;23.272;2024-03-02T05:03:24;7.80;91.40
11045;DHT22;9786;42.714;23.272;2024-03-02T05:05:52;7.80;91.90
11045;DHT22;9786;42.714;23.272;2024-03-02T05:08:21;7.80;91.80
11045;DHT22;9786;42.714;23.272;2024-03-02T05:10:51;7.80;91.70
11045;DHT22;9786;42.714;23.272;2024-03-02T05:13:20;7.80;91.60
11045;DHT22;9786;42.714;23.272;2024-03-02T05:15:49;7.90;91.80
11045;DHT22;9786;42.714;23.272;2024-03-02T05:18:17;8.00;91.60
11045;DHT22;9786;42.714;23.272;2024-03-02T05:20:47;8.10;91.60
11045;DHT22;9786;42.714;23.272;2024-03-02T05:23:15;8.10;91.40
11045;DHT22;9786;42.714;23.272;2024-03-02T05:25:44;8.10;91.30
11045;DHT22;9786;42.714;23.272;2024-03-02T05:28:14;8.00;91.70
11045;DHT22;9786;42.714;23.272;2024-03-02T05:30:43;8.00;91.80
11045;DHT22;9786;42.714;23.272;2024-03-02T05:33:11;8.00;92.00
11045;DHT22;9786;42.714;23.272;2024-03-02T05:35:40;7.90;92.50
11045;DHT22;9786;42.714;23.272;2024-03-02T05:38:09;7.90;92.20
11045;DHT22;9786;42.714;23.272;2024-03-02T05:40:39;7.90;92.30
11045;DHT22;9786;42.714;23.272;2024-03-02T05:43:08;7.80;92.60
11045;DHT22;9786;42.714;23.272;2024-03-02T05:45:38;7.80;92.40
11045;DHT22;9786;42.714;23.272;2024-03-02T05:48:07;7.80;92.60
11045;DHT22;9786;42.714;23.272;2024-03-02T05:50:36;7.80;92.60
11045;DHT22;9786;42.714;23.272;2024-03-02T05:53:05;7.90;92.60
11045;DHT22;9786;42.714;23.272;2024-03-02T05:55:34;8.00;92.50
11045;DHT22;9786;42.714;23.272;2024-03-02T05:58:03;8.00;92.50
11045;DHT22;9786;42.714;23.272;2024-03-02T06:00:49;7.90;92.60
11045;DHT22;9786;42.714;23.272;2024-03-02T06:03:18;7.90;92.60
11045;DHT22;9786;42.714;23.272;2024-03-02T06:05:46;7.70;93.20
11045;DHT22;9786;42.714;23.272;2024-03-02T06:08:16;7.70;93.40
11045;DHT22;9786;42.714;23.272;2024-03-02T06:10:45;7.70;93.40
11045;DHT22;9786;42.714;23.272;2024-03-02T06:13:14;7.70;93.30
11045;DHT22;9786;42.714;23.272;2024-03-02T06:15:43;7.70;93.40
11045;DHT22;9786;42.714;23.272;2024-03-02T06:18:13;7.70;93.50
11045;DHT22;9786;42.714;23.272;2024-03-02T06:20:41;7.70;93.70
11045;DHT22;9786;42.714;23.272;2024-03-02T06:23:10;7.70;93.70
11045;DHT22;9786;42.714;23.272;2024-03-02T06:25:39;7.70;93.70
11045;DHT22;9786;42.714;23.272;2024-03-02T06:28:08;7.80;93.60
11045;DHT22;9786;42.714;23.272;2024-03-02T06:30:36;7.70;93.50
11045;DHT22;9786;42.714;23.272;2024-03-02T06:33:05;7.70;93.60
11045;DHT22;9786;42.714;23.272;2024-03-02T06:35:37;7.70;93.90
11045;DHT22;9786;42.714;23.272;2024-03-02T06:38:06;7.60;93.90
11045;DHT22;9786;42.714;23.272;2024-03-02T06:40:34;7.60;94.10
11045;DHT22;9786;42.714;23.272;2024-03-02T06:43:06;7.70;93.90
11045;DHT22;9786;42.714;23.272;2024-03-02T06:45:35;7.50;93.90
11045;DHT22;9786;42.714;23.272;2024-03-02T06:48:04;7.60;94.00
11045;DHT22;9786;42.714;23.272;2024-03-02T06:50:33;7.60;94.30
11045;DHT22;9786;42.714;23.272;2024-03-02T06:53:04;7.50;94.30
11045;DHT22;9786;42.714;23.272;2024-03-02T06:55:32;7.60;94.10
11045;DHT22;9786;42.714;23.272;2024-03-02T06:58:01;7.50;94.20
11045;DHT22;9786;42.714;23.272;2024-03-02T07:00:30;7.40;94.20
11045;DHT22;9786;42.714;23.272;2024-03-02T07:02:58;7.40;94.30
11045;DHT22;9786;42.714;23.272;2024-03-02T07:05:27;7.40;94.40
11045;DHT22;9786;42.714;23.272;2024-03-02T07:07:56;7.50;94.50
11045;DHT22;9786;42.714;23.272;2024-03-02T07:10:26;7.50;94.50
11045;DHT22;9786;42.714;23.272;2024-03-02T07:12:55;7.50;94.20
11045;DHT22;9786;42.714;23.272;2024-03-02T07:15:24;7.60;94.40
11045;DHT22;9786;42.714;23.272;2024-03-02T07:18:12;7.60;94.10
11045;DHT22;9786;42.714;23.272;2024-03-02T07:20:41;7.50;94.00
11045;DHT22;9786;42.714;23.272;2024-03-02T07:23:10;7.50;93.90
11045;DHT22;9786;42.714;23.272;2024-03-02T07:25:40;7.60;94.10
11045;DHT22;9786;42.714;23.272;2024-03-02T07:28:11;7.60;94.20
11045;DHT22;9786;42.714;23.272;2024-03-02T07:30:41;7.70;93.80
11045;DHT22;9786;42.714;23.272;2024-03-02T07:33:10;7.80;93.90
11045;DHT22;9786;42.714;23.272;2024-03-02T07:35:39;7.70;93.80
11045;DHT22;9786;42.714;23.272;2024-03-02T07:38:07;7.70;93.80
11045;DHT22;9786;42.714;23.272;2024-03-02T07:40:36;7.60;93.90
11045;DHT22;9786;42.714;23.272;2024-03-02T07:43:07;7.60;93.90
11045;DHT22;9786;42.714;23.272;2024-03-02T07:45:36;7.60;94.20
11045;DHT22;9786;42.714;23.272;2024-03-02T07:48:05;7.60;94.50
11045;DHT22;9786;42.714;23.272;2024-03-02T07:50:34;7.60;94.50
11045;DHT22;9786;42.714;23.272;2024-03-02T07:53:03;7.60;94.20
11045;DHT22;9786;42.714;23.272;2024-03-02T07:55:32;7.50;94.20
11045;DHT22;9786;42.714;23.272;2024-03-02T07:58:01;7.50;94.30
11045;DHT22;9786;42.714;23.272;2024-03-02T08:00:31;7.50;94.70
11045;DHT22;9786;42.714;23.272;2024-03-02T08:03:01;7.50;94.40
11045;DHT22;9786;42.714;23.272;2024-03-02T08:05:30;7.50;94.60
11045;DHT22;9786;42.714;23.272;2024-03-02T08:07:59;7.50;94.50
11045;DHT22;9786;42.714;23.272;2024-03-02T08:10:28;7.50;94.50
11045;DHT22;9786;42.714;23.272;2024-03-02T08:12:56;7.50;94.50
11045;DHT22;9786;42.714;23.272;2024-03-02T08:15:25;7.50;94.40
11045;DHT22;9786;42.714;23.272;2024-03-02T08:17:55;7.40;94.70
11045;DHT22;9786;42.714;23.272;2024-03-02T08:20:24;7.40;95.00
11045;DHT22;9786;42.714;23.272;2024-03-02T08:22:53;7.40;94.70
11045;DHT22;9786;42.714;23.272;2024-03-02T08:25:22;7.40;94.80
11045;DHT22;9786;42.714;23.272;2024-03-02T08:27:51;7.40;94.80
11045;DHT22;9786;42.714;23.272;2024-03-02T08:30:20;7.40;94.90
11045;DHT22;9786;42.714;23.272;2024-03-02T08:32:48;7.40;94.80
11045;DHT22;9786;42.714;23.272;2024-03-02T08:35:20;7.40;95.20
11045;DHT22;9786;42.714;23.272;2024-03-02T08:37:53;7.50;94.90
11045;DHT22;9786;42.714;23.272;2024-03-02T08:40:23;7.50;94.90
11045;DHT22;9786;42.714;23.272;2024-03-02T08:42:53;7.60;94.60
11045;DHT22;9786;42.714;23.272;2024-03-02T08:45:22;7.70;94.70
11045;DHT22;9786;42.714;23.272;2024-03-02T08:47:51;7.70;94.40
11045;DHT22;9786;42.714;23.272;2024-03-02T08:50:22;7.80;94.20
11045;DHT22;9786;42.714;23.272;2024-03-02T08:52:51;7.90;94.30
11045;DHT22;9786;42.714;23.272;2024-03-02T08:55:20;7.90;94.20
11045;DHT22;9786;42.714;23.272;2024-03-02T08:57:49;8.00;94.30
11045;DHT22;9786;42.714;23.272;2024-03-02T09:00:19;8.10;93.90
11045;DHT22;9786;42.714;23.272;2024-03-02T09:02:48;8.20;93.70
11045;DHT22;9786;42.714;23.272;2024-03-02T09:05:18;8.30;93.20
11045;DHT22;9786;42.714;23.272;2024-03-02T09:07:48;8.50;93.10
11045;DHT22;9786;42.714;23.272;2024-03-02T09:10:17;8.50;93.00
11045;DHT22;9786;42.714;23.272;2024-03-02T09:12:46;8.50;92.60
11045;DHT22;9786;42.714;23.272;2024-03-02T09:15:15;8.50;92.30
11045;DHT22;9786;42.714;23.272;2024-03-02T09:17:44;8.50;92.60
11045;DHT22;9786;42.714;23.272;2024-03-02T09:20:13;8.70;92.50
11045;DHT22;9786;42.714;23.272;2024-03-02T09:22:42;8.70;92.10
11045;DHT22;9786;42.714;23.272;2024-03-02T09:25:12;8.70;91.30
11045;DHT22;9786;42.714;23.272;2024-03-02T09:27:41;8.70;91.70
11045;DHT22;9786;42.714;23.272;2024-03-02T09:30:10;8.80;91.70
11045;DHT22;9786;42.714;23.272;2024-03-02T09:32:42;8.90;91.70
11045;DHT22;9786;42.714;23.272;2024-03-02T09:35:12;8.90;91.70
11045;DHT22;9786;42.714;23.272;2024-03-02T09:37:41;8.90;91.80
11045;DHT22;9786;42.714;23.272;2024-03-02T09:40:12;9.00;91.70
11045;DHT22;9786;42.714;23.272;2024-03-02T09:42:41;9.00;91.70
11045;DHT22;9786;42.714;23.272;2024-03-02T09:45:10;9.10;91.60
11045;DHT22;9786;42.714;23.272;2024-03-02T09:47:39;9.10;91.80
11045;DHT22;9786;42.714;23.272;2024-03-02T09:50:08;9.40;91.70
11045;DHT22;9786;42.714;23.272;2024-03-02T09:52:38;9.50;90.80
11045;DHT22;9786;42.714;23.272;2024-03-02T09:55:08;9.40;90.80
11045;DHT22;9786;42.714;23.272;2024-03-02T09:57:38;9.30;90.80
11045;DHT22;9786;42.714;23.272;2024-03-02T10:00:10;9.30;91.00
11045;DHT22;9786;42.714;23.272;2024-03-02T10:02:42;9.30;90.80
11045;DHT22;9786;42.714;23.272;2024-03-02T10:05:11;9.40;90.90
11045;DHT22;9786;42.714;23.272;2024-03-02T10:07:40;9.30;90.80
11045;DHT22;9786;42.714;23.272;2024-03-02T10:10:13;9.30;90.70
11045;DHT22;9786;42.714;23.272;2024-03-02T10:12:44;9.20;91.00
11045;DHT22;9786;42.714;23.272;2024-03-02T10:15:13;9.20;91.10
11045;DHT22;9786;42.714;23.272;2024-03-02T10:17:44;9.20;91.20
11045;DHT22;9786;42.714;23.272;2024-03-02T10:20:22;9.30;91.10
11045;DHT22;9786;42.714;23.272;2024-03-02T10:22:51;9.20;91.00
11045;DHT22;9786;42.714;23.272;2024-03-02T10:25:30;9.30;91.10
11045;DHT22;9786;42.714;23.272;2024-03-02T10:28:18;9.30;91.30
11045;DHT22;9786;42.714;23.272;2024-03-02T10:30:48;9.40;91.50
11045;DHT22;9786;42.714;23.272;2024-03-02T10:33:19;9.40;91.30
11045;DHT22;9786;42.714;23.272;2024-03-02T10:35:49;9.50;91.30
11045;DHT22;9786;42.714;23.272;2024-03-02T10:38:19;9.60;91.00
11045;DHT22;9786;42.714;23.272;2024-03-02T10:40:48;9.60;91.20
11045;DHT22;9786;42.714;23.272;2024-03-02T10:43:22;9.50;90.90
11045;DHT22;9786;42.714;23.272;2024-03-02T10:45:52;9.40;91.30
11045;DHT22;9786;42.714;23.272;2024-03-02T10:48:26;9.40;91.60
11045;DHT22;9786;42.714;23.272;2024-03-02T10:50:55;9.10;91.40
11045;DHT22;9786;42.714;23.272;2024-03-02T10:53:28;9.00;91.70
11045;DHT22;9786;42.714;23.272;2024-03-02T10:55:59;8.90;92.00
11045;DHT22;9786;42.714;23.272;2024-03-02T10:58:33;8.90;92.00
11045;DHT22;9786;42.714;23.272;2024-03-02T11:01:03;8.90;92.10
11045;DHT22;9786;42.714;23.272;2024-03-02T11:03:35;8.90;92.20
11045;DHT22;9786;42.714;23.272;2024-03-02T11:06:08;8.80;92.40
11045;DHT22;9786;42.714;23.272;2024-03-02T11:08:38;8.80;92.40
11045;DHT22;9786;42.714;23.272;2024-03-02T11:11:13;8.80;92.70
11045;DHT22;9786;42.714;23.272;2024-03-02T11:13:49;8.90;92.60
11045;DHT22;9786;42.714;23.272;2024-03-02T11:16:27;8.90;92.20
11045;DHT22;9786;42.714;23.272;2024-03-02T11:19:04;8.80;91.90
11045;DHT22;9786;42.714;23.272;2024-03-02T11:21:34;8.90;91.70
11045;DHT22;9786;42.714;23.272;2024-03-02T11:24:31;9.10;91.80
11045;DHT22;9786;42.714;23.272;2024-03-02T11:27:05;9.10;91.50
11045;DHT22;9786;42.714;23.272;2024-03-02T11:29:46;9.00;91.50
11045;DHT22;9786;42.714;23.272;2024-03-02T11:32:18;9.10;91.60
11045;DHT22;9786;42.714;23.272;2024-03-02T11:34:48;9.10;91.40
11045;DHT22;9786;42.714;23.272;2024-03-02T11:37:18;9.20;91.80
11045;DHT22;9786;42.714;23.272;2024-03-02T11:39:50;9.20;91.70
11045;DHT22;9786;42.714;23.272;2024-03-02T11:42:19;9.30;91.50
11045;DHT22;9786;42.714;23.272;2024-03-02T11:44:49;9.50;91.40
11045;DHT22;9786;42.714;23.272;2024-03-02T11:47:18;9.50;91.10
11045;DHT22;9786;42.714;23.272;2024-03-02T11:49:49;9.40;91.10
11045;DHT22;9786;42.714;23.272;2024-03-02T11:52:18;9.60;90.80
11045;DHT22;9786;42.714;23.272;2024-03-02T11:54:48;9.50;90.60
11045;DHT22;9786;42.714;23.272;2024-03-02T11:57:20;9.50;90.60
11045;DHT22;9786;42.714;23.272;2024-03-02T11:59:51;9.50;90.80
11045;DHT22;9786;42.714;23.272;2024-03-02T12:02:20;9.60;90.30
11045;DHT22;9786;42.714;23.272;2024-03-02T12:04:49;9.70;90.30
11045;DHT22;9786;42.714;23.272;2024-03-02T12:07:19;9.60;90.20
11045;DHT22;9786;42.714;23.272;2024-03-02T12:09:49;9.60;89.60
11045;DHT22;9786;42.714;23.272;2024-03-02T12:12:27;9.70;90.00
11045;DHT22;9786;42.714;23.272;2024-03-02T12:14:57;9.80;90.00
11045;DHT22;9786;42.714;23.272;2024-03-02T12:17:29;9.70;89.50
11045;DHT22;9786;42.714;23.272;2024-03-02T12:19:58;9.70;90.20
11045;DHT22;9786;42.714;23.272;2024-03-02T12:22:26;9.90;89.90
11045;DHT22;9786;42.714;23.272;2024-03-02T12:24:55;9.80;88.70
11045;DHT22;9786;42.714;23.272;2024-03-02T12:27:24;9.80;88.40
11045;DHT22;9786;42.714;23.272;2024-03-02T12:29:52;9.80;88.90
11045;DHT22;9786;42.714;23.272;2024-03-02T12:32:22;9.80;88.80
11045;DHT22;9786;42.714;23.272;2024-03-02T12:34:51;9.70;89.10
11045;DHT22;9786;42.714;23.272;2024-03-02T12:37:20;10.00;89.30
11045;DHT22;9786;42.714;23.272;2024-03-02T12:39:49;9.90;88.40
11045;DHT22;9786;42.714;23.272;2024-03-02T12:42:17;9.90;89.10
11045;DHT22;9786;42.714;23.272;2024-03-02T12:44:46;9.90;88.90
11045;DHT22;9786;42.714;23.272;2024-03-02T12:47:15;9.90;88.80
11045;DHT22;9786;42.714;23.272;2024-03-02T12:49:45;9.70;89.30
11045;DHT22;9786;42.714;23.272;2024-03-02T12:52:14;9.80;89.40
11045;DHT22;9786;42.714;23.272;2024-03-02T12:54:46;9.70;89.50
11045;DHT22;9786;42.714;23.272;2024-03-02T12:57:17;9.50;89.20
11045;DHT22;9786;42.714;23.272;2024-03-02T12:59:46;9.50;89.60
11045;DHT22;9786;42.714;23.272;2024-03-02T13:02:17;9.40;90.00
11045;DHT22;9786;42.714;23.272;2024-03-02T13:04:53;9.60;90.30
11045;DHT22;9786;42.714;23.272;2024-03-02T13:07:24;9.40;90.10
11045;DHT22;9786;42.714;23.272;2024-03-02T13:09:52;9.40;90.10
11045;DHT22;9786;42.714;23.272;2024-03-02T13:12:23;9.40;90.10
11045;DHT22;9786;42.714;23.272;2024-03-02T13:14:52;9.50;90.00
11045;DHT22;9786;42.714;23.272;2024-03-02T13:17:21;9.40;90.00
11045;DHT22;9786;42.714;23.272;2024-03-02T13:19:55;9.30;89.90
11045;DHT22;9786;42.714;23.272;2024-03-02T13:22:25;9.30;90.10
11045;DHT22;9786;42.714;23.272;2024-03-02T13:24:54;9.40;90.20
11045;DHT22;9786;42.714;23.272;2024-03-02T13:27:23;9.30;89.60
11045;DHT22;9786;42.714;23.272;2024-03-02T13:29:54;9.40;89.80
11045;DHT22;9786;42.714;23.272;2024-03-02T13:32:23;9.20;90.10
11045;DHT22;9786;42.714;23.272;2024-03-02T13:34:54;9.30;90.30
11045;DHT22;9786;42.714;23.272;2024-03-02T13:37:23;9.20;90.20
11045;DHT22;9786;42.714;23.272;2024-03-02T13:39:52;9.40;90.30
11045;DHT22;9786;42.714;23.272;2024-03-02T13:42:21;9.40;90.40
11045;DHT22;9786;42.714;23.272;2024-03-02T13:44:50;9.40;90.20
11045;DHT22;9786;42.714;23.272;2024-03-02T13:47:19;9.50;90.10
11045;DHT22;9786;42.714;23.272;2024-03-02T13:49:48;9.40;89.80
11045;DHT22;9786;42.714;23.272;2024-03-02T13:52:19;9.50;90.00
11045;DHT22;9786;42.714;23.272;2024-03-02T13:54:48;9.50;89.80
11045;DHT22;9786;42.714;23.272;2024-03-02T13:57:16;9.70;90.00
11045;DHT22;9786;42.714;23.272;2024-03-02T13:59:50;9.80;89.30
11045;DHT22;9786;42.714;23.272;2024-03-02T14:02:20;10.00;88.30
11045;DHT22;9786;42.714;23.272;2024-03-02T14:04:49;10.00;88.00
11045;DHT22;9786;42.714;23.272;2024-03-02T14:07:19;10.00;87.60
11045;DHT22;9786;42.714;23.272;2024-03-02T14:09:48;10.00;87.70
11045;DHT22;9786;42.714;23.272;2024-03-02T14:12:16;10.00;87.40
11045;DHT22;9786;42.714;23.272;2024-03-02T14:14:46;10.00;87.30
11045;DHT22;9786;42.714;23.272;2024-03-02T14:17:14;10.20;86.40
11045;DHT22;9786;42.714;23.272;2024-03-02T14:19:43;10.20;85.40
11045;DHT22;9786;42.714;23.272;2024-03-02T14:22:12;10.10;85.20
11045;DHT22;9786;42.714;23.272;2024-03-02T14:24:48;10.00;84.80
11045;DHT22;9786;42.714;23.272;2024-03-02T14:27:16;10.00;85.40
11045;DHT22;9786;42.714;23.272;2024-03-02T14:30:05;10.20;85.40
11045;DHT22;9786;42.714;23.272;2024-03-02T14:32:34;10.20;85.40
11045;DHT22;9786;42.714;23.272;2024-03-02T14:35:03;10.20;85.10
11045;DHT22;9786;42.714;23.272;2024-03-02T14:37:32;10.10;86.00
11045;DHT22;9786;42.714;23.272;2024-03-02T14:40:02;10.00;85.90
11045;DHT22;9786;42.714;23.272;2024-03-02T14:42:33;10.00;86.00
11045;DHT22;9786;42.714;23.272;2024-03-02T14:45:02;10.10;86.20
11045;DHT22;9786;42.714;23.272;2024-03-02T14:47:32;10.10;86.10
11045;DHT22;9786;42.714;23.272;2024-03-02T14:50:03;10.20;86.30
11045;DHT22;9786;42.714;23.272;2024-03-02T14:52:33;10.40;85.90
11045;DHT22;9786;42.714;23.272;2024-03-02T14:55:04;10.60;84.00
11045;DHT22;9786;42.714;23.272;2024-03-02T14:57:35;10.80;82.70
11045;DHT22;9786;42.714;23.272;2024-03-02T15:00:05;10.80;82.10
11045;DHT22;9786;42.714;23.272;2024-03-02T15:02:35;10.70;82.40
11045;DHT22;9786;42.714;23.272;2024-03-02T15:05:04;10.80;82.70
11045;DHT22;9786;42.714;23.272;2024-03-02T15:07:34;10.70;82.50
11045;DHT22;9786;42.714;23.272;2024-03-02T15:10:04;10.70;82.90
11045;DHT22;9786;42.714;23.272;2024-03-02T15:12:33;10.80;82.70
11045;DHT22;9786;42.714;23.272;2024-03-02T15:15:02;10.80;82.30
11045;DHT22;9786;42.714;23.272;2024-03-02T15:17:31;10.80;81.90
11045;DHT22;9786;42.714;23.272;2024-03-02T15:20:00;10.80;83.30
11045;DHT22;9786;42.714;23.272;2024-03-02T15:22:29;10.70;83.00
11045;DHT22;9786;42.714;23.272;2024-03-02T15:24:57;10.70;82.60
11045;DHT22;9786;42.714;23.272;2024-03-02T15:27:28;10.70;82.10
11045;DHT22;9786;42.714;23.272;2024-03-02T15:29:58;10.60;82.80
11045;DHT22;9786;42.714;23.272;2024-03-02T15:32:27;10.60;82.90
11045;DHT22;9786;42.714;23.272;2024-03-02T15:34:56;10.60;83.40
11045;DHT22;9786;42.714;23.272;2024-03-02T15:37:25;10.60;83.50
11045;DHT22;9786;42.714;23.272;2024-03-02T15:39:54;10.60;83.80
11045;DHT22;9786;42.714;23.272;2024-03-02T15:42:23;10.60;83.60
11045;DHT22;9786;42.714;23.272;2024-03-02T15:44:53;10.60;83.70
11045;DHT22;9786;42.714;23.272;2024-03-02T15:47:22;10.60;84.10
11045;DHT22;9786;42.714;23.272;2024-03-02T15:49:51;10.50;84.10
11045;DHT22;9786;42.714;23.272;2024-03-02T15:52:19;10.40;84.40
11045;DHT22;9786;42.714;23.272;2024-03-02T15:54:48;10.40;84.60
11045;DHT22;9786;42.714;23.272;2024-03-02T15:57:17;10.40;84.50
11045;DHT22;9786;42.714;23.272;2024-03-02T15:59:46;10.50;84.70
11045;DHT22;9786;42.714;23.272;2024-03-02T16:02:16;10.30;84.30
11045;DHT22;9786;42.714;23.272;2024-03-02T16:04:45;10.30;84.80